Time;durP1;ratioP1;P1;durP2;ratioP2;P2;SDS_P1;SDS_P2;PMS_P1;PMS_P2;Temp;Humidity;BMP_temperature;BMP_pressure;BME280_temperature;BME280_humidity;BME280_pressure;Samples;Min_cycle;Max_cycle;Signal;HPM_P1;HPM_P2
2021/06/08 00:01:25;;;;;;;17.13;14.67;;;;;;;;;;5114566;28;20228;-82
2021/06/08 00:03:50;;;;;;;17.10;15.60;;;;;;;;;;5115119;28;20649;-82
2021/06/08 00:06:16;;;;;;;17.63;15.83;;;;;;;;;;5115065;28;20170;-83
2021/06/08 00:08:41;;;;;;;16.87;15.37;;;;;;;;;;5115602;28;20169;-83
2021/06/08 00:11:07;;;;;;;16.93;15.33;;;;;;;;;;5114764;28;20516;-82
2021/06/08 00:13:32;;;;;;;17.97;15.70;;;;;;;;;;5115099;28;20180;-82
2021/06/08 00:15:57;;;;;;;17.37;15.63;;;;;;;;;;5097627;28;20648;-82
2021/06/08 00:18:22;;;;;;;17.13;15.33;;;;;;;;;;5094729;28;20231;-82
2021/06/08 00:20:48;;;;;;;16.43;14.77;;;;;;;;;;5094316;28;20210;-82
2021/06/08 00:23:13;;;;;;;17.37;15.63;;;;;;;;;;5094729;28;20219;-82
2021/06/08 00:25:38;;;;;;;19.13;16.60;;;;;;;;;;5094629;28;20162;-82
2021/06/08 00:28:04;;;;;;;19.43;17.37;;;;;;;;;;5094334;28;20186;-82
2021/06/08 00:30:30;;;;;;;18.83;16.57;;;;;;;;;;5094189;28;20250;-83
2021/06/08 00:32:55;;;;;;;19.77;17.53;;;;;;;;;;5094211;28;20186;-82
2021/06/08 00:35:20;;;;;;;19.03;17.10;;;;;;;;;;5094314;28;20167;-82
2021/06/08 00:37:46;;;;;;;20.80;18.57;;;;;;;;;;5094274;28;20624;-81
2021/06/08 00:40:11;;;;;;;19.70;17.50;;;;;;;;;;5094524;28;20170;-82
2021/06/08 00:42:38;;;;;;;18.60;16.70;;;;;;;;;;5094186;28;20556;-81
2021/06/08 00:45:04;;;;;;;17.90;16.20;;;;;;;;;;5094467;28;20664;-81
2021/06/08 00:47:30;;;;;;;17.70;15.97;;;;;;;;;;5094755;28;20178;-82
2021/06/08 00:49:56;;;;;;;18.00;16.20;;;;;;;;;;5093235;28;20575;-82
2021/06/08 00:52:21;;;;;;;18.73;16.20;;;;;;;;;;5094207;28;20247;-82
2021/06/08 00:54:46;;;;;;;18.30;15.80;;;;;;;;;;5094494;28;20167;-82
2021/06/08 00:57:12;;;;;;;17.43;15.80;;;;;;;;;;5093954;28;20170;-82
2021/06/08 00:59:37;;;;;;;17.13;15.63;;;;;;;;;;5093757;28;20186;-83
2021/06/08 01:02:03;;;;;;;17.67;16.03;;;;;;;;;;5093604;28;20234;-82
2021/06/08 01:04:28;;;;;;;17.57;15.80;;;;;;;;;;5094328;28;20225;-83
2021/06/08 01:06:53;;;;;;;16.93;15.13;;;;;;;;;;5093968;28;20617;-83
2021/06/08 01:09:19;;;;;;;17.63;16.00;;;;;;;;;;5094541;28;20173;-83
2021/06/08 01:11:44;;;;;;;17.27;15.53;;;;;;;;;;5093947;28;20173;-83
2021/06/08 01:14:09;;;;;;;17.67;15.97;;;;;;;;;;5093979;28;20625;-83
2021/06/08 01:16:35;;;;;;;18.00;16.07;;;;;;;;;;5093610;28;20227;-82
2021/06/08 01:19:00;;;;;;;17.90;15.83;;;;;;;;;;5093577;28;20172;-82
2021/06/08 01:21:27;;;;;;;22.50;16.90;;;;;;;;;;5093976;28;20205;-82
2021/06/08 01:23:53;;;;;;;22.33;16.67;;;;;;;;;;5094387;28;20174;-83
2021/06/08 01:26:21;;;;;;;19.33;16.50;;;;;;;;;;5093875;28;20220;-83
2021/06/08 01:28:47;;;;;;;18.30;15.87;;;;;;;;;;5093781;28;20166;-83
2021/06/08 01:31:14;;;;;;;22.17;16.77;;;;;;;;;;5094125;28;20171;-83
2021/06/08 01:33:40;;;;;;;22.57;16.07;;;;;;;;;;5093808;28;20254;-83
2021/06/08 01:36:06;;;;;;;22.30;16.20;;;;;;;;;;5093705;28;20163;-83
2021/06/08 01:38:31;;;;;;;18.87;15.57;;;;;;;;;;5094004;28;20632;-82
2021/06/08 01:40:57;;;;;;;17.67;15.73;;;;;;;;;;5093855;28;20194;-82
2021/06/08 01:43:22;;;;;;;17.37;15.67;;;;;;;;;;5093897;28;20194;-82
2021/06/08 01:45:49;;;;;;;18.93;16.33;;;;;;;;;;5093901;28;20241;-82
2021/06/08 01:48:14;;;;;;;19.53;15.63;;;;;;;;;;5093293;28;20531;-83
2021/06/08 01:50:40;;;;;;;18.33;16.33;;;;;;;;;;5093628;28;20196;-83
2021/06/08 01:53:08;;;;;;;18.90;15.63;;;;;;;;;;5093447;28;20182;-83
2021/06/08 01:55:36;;;;;;;18.43;16.50;;;;;;;;;;5093521;28;20255;-83
2021/06/08 01:58:04;;;;;;;19.07;15.43;;;;;;;;;;5093254;28;20532;-83
2021/06/08 02:00:39;;;;;;;24.27;16.73;;;;;;;;;;5092946;28;20617;-83
2021/06/08 02:03:12;;;;;;;19.50;15.90;;;;;;;;;;5093793;28;20173;-83
2021/06/08 02:05:47;;;;;;;18.10;16.10;;;;;;;;;;5093734;28;20175;-83
2021/06/08 02:08:15;;;;;;;22.10;16.67;;;;;;;;;;5093969;28;20254;-83
2021/06/08 02:11:12;;;;;;;25.63;15.90;;;;;;;;;;5096837;28;20189;-83
2021/06/08 02:13:56;;;;;;;20.87;15.13;;;;;;;;;;5041026;28;20557;-83
2021/06/08 02:16:29;;;;;;;21.00;16.13;;;;;;;;;;5097551;28;20170;-82
2021/06/08 02:18:55;;;;;;;17.43;15.20;;;;;;;;;;5097129;28;20553;-82
2021/06/08 02:21:24;;;;;;;21.17;15.63;;;;;;;;;;5096904;28;20230;-83
2021/06/08 02:23:51;;;;;;;20.17;15.00;;;;;;;;;;5096554;28;20249;-83
2021/06/08 02:26:18;;;;;;;20.40;15.83;;;;;;;;;;5097097;28;20176;-84
2021/06/08 02:28:44;;;;;;;21.63;15.83;;;;;;;;;;5096481;28;20649;-83
2021/06/08 02:31:10;;;;;;;18.97;16.40;;;;;;;;;;5096645;28;20247;-83
2021/06/08 02:33:36;;;;;;;18.43;16.40;;;;;;;;;;5096655;28;20609;-83
2021/06/08 02:36:02;;;;;;;21.93;16.90;;;;;;;;;;5097125;28;20166;-82
2021/06/08 02:38:28;;;;;;;20.23;17.77;;;;;;;;;;5096866;28;20527;-83
2021/06/08 02:40:53;;;;;;;18.73;16.90;;;;;;;;;;5096474;28;20205;-84
2021/06/08 02:43:20;;;;;;;20.67;17.80;;;;;;;;;;5096132;28;20167;-84
2021/06/08 02:45:46;;;;;;;21.80;17.30;;;;;;;;;;5096371;28;20324;-83
2021/06/08 02:48:11;;;;;;;18.60;16.67;;;;;;;;;;5096174;28;20200;-83
2021/06/08 02:50:37;;;;;;;19.20;17.07;;;;;;;;;;5096016;28;20275;-83
2021/06/08 02:53:02;;;;;;;18.97;17.13;;;;;;;;;;5096498;28;20190;-82
2021/06/08 02:55:28;;;;;;;22.43;17.57;;;;;;;;;;5095902;28;20167;-82
2021/06/08 02:57:54;;;;;;;18.80;16.90;;;;;;;;;;5096428;28;20620;-82
2021/06/08 03:00:20;;;;;;;22.40;17.40;;;;;;;;;;5095605;28;20621;-83
2021/06/08 03:02:47;;;;;;;21.23;16.87;;;;;;;;;;5096420;28;20255;-83
2021/06/08 03:05:16;;;;;;;18.93;17.03;;;;;;;;;;5095989;28;20514;-83
2021/06/08 03:07:44;;;;;;;18.97;17.00;;;;;;;;;;5095727;28;20170;-83
2021/06/08 03:10:11;;;;;;;20.40;17.17;;;;;;;;;;5096227;28;20178;-83
2021/06/08 03:12:52;;;;;;;18.67;16.77;;;;;;;;;;5095671;28;20202;-83
2021/06/08 03:15:18;;;;;;;19.93;16.30;;;;;;;;;;5095938;28;20166;-83
2021/06/08 03:17:44;;;;;;;17.33;15.40;;;;;;;;;;5095879;28;20171;-84
2021/06/08 03:20:13;;;;;;;17.07;15.37;;;;;;;;;;5095439;28;20324;-84
2021/06/08 03:22:42;;;;;;;16.77;14.70;;;;;;;;;;5095522;28;20210;-84
2021/06/08 03:25:08;;;;;;;16.13;14.53;;;;;;;;;;5095419;28;20171;-84
2021/06/08 03:27:34;;;;;;;15.40;13.90;;;;;;;;;;5096237;28;20182;-84
2021/06/08 03:30:00;;;;;;;15.90;14.37;;;;;;;;;;5095547;28;20525;-84
2021/06/08 03:32:25;;;;;;;15.67;14.07;;;;;;;;;;5095780;28;20275;-84
2021/06/08 03:34:51;;;;;;;14.43;13.03;;;;;;;;;;5095825;28;20612;-84
2021/06/08 03:37:17;;;;;;;15.27;13.70;;;;;;;;;;5095452;28;20174;-84
2021/06/08 03:39:44;;;;;;;14.40;13.17;;;;;;;;;;5095058;28;20577;-84
2021/06/08 03:42:11;;;;;;;15.03;13.60;;;;;;;;;;5094955;28;20555;-84
2021/06/08 03:44:36;;;;;;;15.63;14.23;;;;;;;;;;5095036;28;20532;-83
2021/06/08 03:47:02;;;;;;;15.23;13.67;;;;;;;;;;5094893;28;20272;-83
2021/06/08 03:49:27;;;;;;;15.07;13.67;;;;;;;;;;5095160;28;20174;-83
2021/06/08 03:51:54;;;;;;;15.37;13.97;;;;;;;;;;5095412;28;20178;-83
2021/06/08 03:54:20;;;;;;;14.37;13.17;;;;;;;;;;5095158;28;20513;-83
2021/06/08 03:56:47;;;;;;;14.80;13.27;;;;;;;;;;5095059;28;20166;-83
2021/06/08 03:59:13;;;;;;;14.67;13.10;;;;;;;;;;5095032;28;20162;-83
2021/06/08 04:01:38;;;;;;;13.90;12.60;;;;;;;;;;5094755;28;20696;-83
2021/06/08 04:04:07;;;;;;;12.67;11.67;;;;;;;;;;5094954;28;20167;-83
2021/06/08 04:06:33;;;;;;;13.40;12.00;;;;;;;;;;5094856;28;20224;-83
2021/06/08 04:09:02;;;;;;;12.68;11.52;;;;;;;;;;5094528;28;20167;-83
2021/06/08 04:11:27;;;;;;;11.77;10.77;;;;;;;;;;5094758;28;20196;-83
2021/06/08 04:13:54;;;;;;;11.60;10.40;;;;;;;;;;5094752;28;20665;-83
2021/06/08 04:16:20;;;;;;;12.10;10.95;;;;;;;;;;5094723;28;20678;-84
2021/06/08 04:18:45;;;;;;;9.75;8.90;;;;;;;;;;5094309;28;20162;-84
2021/06/08 04:21:10;;;;;;;9.43;8.73;;;;;;;;;;5094841;28;20194;-84
2021/06/08 04:23:36;;;;;;;9.52;8.80;;;;;;;;;;5094635;28;20616;-85
2021/06/08 04:26:01;;;;;;;9.60;8.85;;;;;;;;;;5094816;28;20665;-85
2021/06/08 04:28:26;;;;;;;9.23;8.52;;;;;;;;;;5094859;28;20245;-85
2021/06/08 04:30:53;;;;;;;8.40;7.60;;;;;;;;;;5094015;28;20261;-85
2021/06/08 04:33:26;;;;;;;8.13;7.40;;;;;;;;;;5094694;28;20246;-85
2021/06/08 04:35:51;;;;;;;8.90;7.20;;;;;;;;;;5094628;28;20524;-85
2021/06/08 04:38:17;;;;;;;9.90;9.20;;;;;;;;;;5094420;28;20241;-85
2021/06/08 04:40:45;;;;;;;8.75;8.05;;;;;;;;;;5094573;28;20174;-85
2021/06/08 04:43:11;;;;;;;7.15;6.45;;;;;;;;;;5094029;28;20253;-85
2021/06/08 04:45:36;;;;;;;6.70;6.20;;;;;;;;;;5094844;28;20253;-85
2021/06/08 04:48:01;;;;;;;7.32;6.68;;;;;;;;;;5094471;28;20487;-85
2021/06/08 04:50:27;;;;;;;6.32;5.82;;;;;;;;;;5093893;28;20638;-86
2021/06/08 04:52:56;;;;;;;6.03;5.43;;;;;;;;;;5093900;28;20606;-86
2021/06/08 04:55:23;;;;;;;5.32;5.03;;;;;;;;;;5094072;28;20173;-86
2021/06/08 04:57:50;;;;;;;5.93;5.43;;;;;;;;;;5094356;28;20162;-86
2021/06/08 05:00:16;;;;;;;5.63;5.22;;;;;;;;;;5094409;28;20231;-84
2021/06/08 05:02:48;;;;;;;5.25;4.72;;;;;;;;;;5094511;28;20173;-83
2021/06/08 05:05:17;;;;;;;5.63;5.13;;;;;;;;;;5094312;28;20671;-83
2021/06/08 05:07:49;;;;;;;5.68;5.18;;;;;;;;;;5094273;28;20162;-83
2021/06/08 05:10:15;;;;;;;5.43;4.82;;;;;;;;;;5094233;28;20166;-83
2021/06/08 05:12:42;;;;;;;4.90;4.60;;;;;;;;;;5094153;28;20205;-83
2021/06/08 05:15:08;;;;;;;5.47;5.07;;;;;;;;;;5093887;28;20256;-83
2021/06/08 05:17:33;;;;;;;5.53;4.93;;;;;;;;;;5094183;28;20200;-83
2021/06/08 05:19:59;;;;;;;5.88;5.25;;;;;;;;;;5094155;28;20611;-83
2021/06/08 05:22:25;;;;;;;5.63;5.00;;;;;;;;;;5093875;28;20510;-84
2021/06/08 05:24:51;;;;;;;5.72;5.22;;;;;;;;;;5093774;28;20608;-84
2021/06/08 05:27:17;;;;;;;5.53;5.13;;;;;;;;;;5093770;28;20162;-82
2021/06/08 05:29:43;;;;;;;6.32;5.72;;;;;;;;;;5093765;28;20181;-82
2021/06/08 05:32:10;;;;;;;6.35;5.75;;;;;;;;;;5093386;28;20229;-82
2021/06/08 05:34:36;;;;;;;6.57;5.90;;;;;;;;;;5093709;28;20239;-82
2021/06/08 05:37:08;;;;;;;7.00;6.32;;;;;;;;;;5093488;28;20216;-82
2021/06/08 05:39:37;;;;;;;6.38;5.78;;;;;;;;;;5093698;28;20515;-82
2021/06/08 05:42:02;;;;;;;6.22;5.68;;;;;;;;;;5094256;28;20180;-83
2021/06/08 05:44:27;;;;;;;6.28;5.78;;;;;;;;;;5096249;28;20252;-83
2021/06/08 05:46:53;;;;;;;5.93;5.47;;;;;;;;;;5097213;28;20181;-83
2021/06/08 05:49:18;;;;;;;5.85;5.45;;;;;;;;;;5097260;28;20201;-82
2021/06/08 05:51:44;;;;;;;6.22;5.72;;;;;;;;;;5097428;28;20189;-83
2021/06/08 05:54:10;;;;;;;5.60;5.30;;;;;;;;;;5097654;28;20243;-83
2021/06/08 05:56:36;;;;;;;6.05;5.65;;;;;;;;;;5108131;28;20632;-84
2021/06/08 05:59:01;;;;;;;6.32;5.85;;;;;;;;;;5114554;27;20282;-84
2021/06/08 06:01:27;;;;;;;6.13;5.63;;;;;;;;;;5117314;28;20562;-84
2021/06/08 06:03:53;;;;;;;5.90;5.38;;;;;;;;;;5117942;28;20218;-84
2021/06/08 06:06:18;;;;;;;5.43;5.13;;;;;;;;;;5117420;28;20173;-85
2021/06/08 06:08:44;;;;;;;5.65;5.25;;;;;;;;;;5116724;27;20168;-86
2021/06/08 06:11:10;;;;;;;5.45;5.15;;;;;;;;;;5117025;28;20552;-85
2021/06/08 06:13:40;;;;;;;5.90;5.45;;;;;;;;;;5117202;28;20210;-85
2021/06/08 06:16:07;;;;;;;7.07;5.43;;;;;;;;;;5117396;28;20161;-85
2021/06/08 06:18:32;;;;;;;5.68;5.38;;;;;;;;;;5117491;28;20161;-85
2021/06/08 06:20:58;;;;;;;6.13;5.60;;;;;;;;;;5117166;28;20608;-85
2021/06/08 06:23:24;;;;;;;5.68;5.15;;;;;;;;;;5116878;28;20540;-85
2021/06/08 06:25:50;;;;;;;5.75;5.15;;;;;;;;;;5117128;28;20169;-85
2021/06/08 06:28:16;;;;;;;5.95;5.45;;;;;;;;;;5112573;28;20182;-85
2021/06/08 06:30:42;;;;;;;5.68;5.38;;;;;;;;;;5114876;28;20177;-85
2021/06/08 06:33:08;;;;;;;5.88;5.47;;;;;;;;;;5117266;28;20173;-84
2021/06/08 06:35:34;;;;;;;5.63;5.32;;;;;;;;;;5116964;28;20256;-85
2021/06/08 06:38:00;;;;;;;5.93;5.53;;;;;;;;;;5116933;28;20164;-84
2021/06/08 06:40:28;;;;;;;5.50;5.10;;;;;;;;;;5116605;28;20200;-84
2021/06/08 06:42:59;;;;;;;5.85;5.45;;;;;;;;;;5116834;28;20192;-84
2021/06/08 06:45:24;;;;;;;5.55;5.15;;;;;;;;;;5116581;28;20160;-84
2021/06/08 06:47:50;;;;;;;5.10;4.80;;;;;;;;;;5116216;28;20165;-84
2021/06/08 06:50:16;;;;;;;5.90;5.47;;;;;;;;;;5116539;28;20520;-84
2021/06/08 06:52:43;;;;;;;5.50;5.20;;;;;;;;;;5116163;28;20209;-84
2021/06/08 06:55:09;;;;;;;6.05;5.55;;;;;;;;;;5116076;28;20169;-83
2021/06/08 06:57:35;;;;;;;5.93;5.53;;;;;;;;;;5116296;28;20165;-84
2021/06/08 07:00:01;;;;;;;5.95;5.30;;;;;;;;;;5116820;28;20173;-84
2021/06/08 07:02:27;;;;;;;5.30;4.93;;;;;;;;;;5115920;28;20229;-83
2021/06/08 07:04:53;;;;;;;5.97;5.47;;;;;;;;;;5116135;28;20647;-83
2021/06/08 07:07:24;;;;;;;5.78;5.30;;;;;;;;;;5115838;28;20173;-84
2021/06/08 07:09:49;;;;;;;5.50;5.05;;;;;;;;;;5116207;28;20244;-84
2021/06/08 07:12:24;;;;;;;5.80;5.20;;;;;;;;;;5116335;28;20283;-84
2021/06/08 07:14:49;;;;;;;5.38;4.88;;;;;;;;;;5115948;28;20181;-84
2021/06/08 07:17:15;;;;;;;5.38;5.07;;;;;;;;;;5116258;28;20180;-83
2021/06/08 07:19:41;;;;;;;5.85;5.45;;;;;;;;;;5116094;28;20611;-84
2021/06/08 07:22:07;;;;;;;5.68;5.18;;;;;;;;;;5115999;28;20173;-84
2021/06/08 07:24:33;;;;;;;5.10;4.80;;;;;;;;;;5108895;28;20654;-83
2021/06/08 07:26:59;;;;;;;4.95;4.57;;;;;;;;;;5095712;28;20178;-84
2021/06/08 07:29:24;;;;;;;4.80;4.50;;;;;;;;;;5095311;28;20537;-83
2021/06/08 07:31:50;;;;;;;4.88;4.40;;;;;;;;;;5095115;28;20644;-82
2021/06/08 07:34:26;;;;;;;4.93;4.50;;;;;;;;;;5095711;28;20169;-82
2021/06/08 07:36:54;;;;;;;4.93;4.40;;;;;;;;;;5095482;28;20170;-82
2021/06/08 07:39:28;;;;;;;5.28;4.78;;;;;;;;;;5095273;28;20162;-82
2021/06/08 07:41:56;;;;;;;5.05;4.63;;;;;;;;;;5095835;28;20173;-83
2021/06/08 07:44:34;;;;;;;6.03;4.72;;;;;;;;;;5095824;28;20161;-82
2021/06/08 07:47:04;;;;;;;4.90;4.60;;;;;;;;;;5095116;28;20261;-82
2021/06/08 07:49:30;;;;;;;5.13;4.78;;;;;;;;;;5095286;28;20154;-82
2021/06/08 07:51:56;;;;;;;4.38;4.18;;;;;;;;;;5095006;28;20213;-82
2021/06/08 07:54:23;;;;;;;3.92;3.63;;;;;;;;;;5095148;28;20211;-82
2021/06/08 07:56:49;;;;;;;4.60;4.30;;;;;;;;;;5094941;28;20227;-82
2021/06/08 07:59:15;;;;;;;7.53;4.40;;;;;;;;;;5094718;28;20166;-82
2021/06/08 08:01:41;;;;;;;4.55;3.72;;;;;;;;;;5094632;28;20320;-82
2021/06/08 08:04:08;;;;;;;3.92;3.63;;;;;;;;;;5112438;28;20256;-81
2021/06/08 08:06:34;;;;;;;4.25;3.90;;;;;;;;;;5114125;28;20539;-81
2021/06/08 08:08:59;;;;;;;4.07;3.78;;;;;;;;;;5114802;28;20169;-81
2021/06/08 08:11:27;;;;;;;4.15;3.75;;;;;;;;;;5114782;28;20596;-81
2021/06/08 08:13:52;;;;;;;4.20;3.85;;;;;;;;;;5114831;28;20628;-82
2021/06/08 08:16:18;;;;;;;4.80;4.38;;;;;;;;;;5114688;28;20181;-81
2021/06/08 08:18:44;;;;;;;4.45;4.10;;;;;;;;;;5115374;28;20162;-81
2021/06/08 08:21:10;;;;;;;4.43;4.03;;;;;;;;;;5113493;27;20178;-81
2021/06/08 08:23:37;;;;;;;4.78;4.38;;;;;;;;;;5114389;28;20169;-81
2021/06/08 08:26:04;;;;;;;4.70;4.40;;;;;;;;;;5114391;27;20533;-82
2021/06/08 08:28:30;;;;;;;5.78;5.10;;;;;;;;;;5114643;28;20192;-83
2021/06/08 08:31:00;;;;;;;5.70;5.00;;;;;;;;;;5114372;28;20531;-83
2021/06/08 08:33:27;;;;;;;5.68;5.00;;;;;;;;;;5114782;28;20175;-83
2021/06/08 08:35:52;;;;;;;5.65;4.88;;;;;;;;;;5114635;28;20185;-83
2021/06/08 08:38:18;;;;;;;5.13;4.72;;;;;;;;;;5114354;28;20182;-83
2021/06/08 08:40:43;;;;;;;5.10;4.70;;;;;;;;;;5114549;28;20162;-83
2021/06/08 08:43:09;;;;;;;5.68;5.28;;;;;;;;;;5114560;28;20170;-83
2021/06/08 08:45:34;;;;;;;5.53;5.00;;;;;;;;;;5114607;28;20166;-83
2021/06/08 08:48:00;;;;;;;5.63;5.07;;;;;;;;;;5113847;28;20176;-83
2021/06/08 08:50:26;;;;;;;5.80;5.13;;;;;;;;;;5114172;28;20162;-84
2021/06/08 08:52:58;;;;;;;4.90;4.47;;;;;;;;;;5114028;28;20205;-84
2021/06/08 08:55:24;;;;;;;5.35;4.93;;;;;;;;;;5114254;28;20191;-83
2021/06/08 08:57:49;;;;;;;5.88;5.10;;;;;;;;;;5114422;28;20169;-84
2021/06/08 09:00:15;;;;;;;6.13;4.78;;;;;;;;;;5093337;28;20226;-83
2021/06/08 09:02:40;;;;;;;5.25;4.72;;;;;;;;;;5093700;28;20249;-83
2021/06/08 09:05:06;;;;;;;5.25;4.85;;;;;;;;;;5092280;28;20182;-83
2021/06/08 09:07:31;;;;;;;5.72;5.20;;;;;;;;;;5106833;28;20630;-84
2021/06/08 09:09:57;;;;;;;5.70;5.15;;;;;;;;;;5114014;28;20205;-83
2021/06/08 09:12:22;;;;;;;5.47;5.07;;;;;;;;;;5113107;28;20291;-84
2021/06/08 09:14:48;;;;;;;4.90;4.50;;;;;;;;;;5113454;28;20634;-83
2021/06/08 09:17:16;;;;;;;4.95;4.55;;;;;;;;;;5114457;28;20177;-83
2021/06/08 09:19:42;;;;;;;4.47;4.18;;;;;;;;;;5118523;28;20180;-83
2021/06/08 09:22:10;;;;;;;6.90;4.65;;;;;;;;;;5118337;28;20165;-83
2021/06/08 09:24:35;;;;;;;6.93;4.80;;;;;;;;;;5118250;28;20176;-84
2021/06/08 09:27:02;;;;;;;4.50;4.20;;;;;;;;;;5099849;28;20249;-84
2021/06/08 09:29:33;;;;;;;4.85;4.55;;;;;;;;;;5118240;28;20166;-84
2021/06/08 09:32:11;;;;;;;5.20;4.80;;;;;;;;;;5118191;27;20196;-83
2021/06/08 09:34:36;;;;;;;5.07;4.68;;;;;;;;;;5134805;27;21503;-84
2021/06/08 09:37:05;;;;;;;4.75;4.32;;;;;;;;;;5117902;28;20260;-84
2021/06/08 09:39:30;;;;;;;5.40;4.38;;;;;;;;;;5118189;28;20612;-85
2021/06/08 09:41:55;;;;;;;5.32;4.55;;;;;;;;;;5117530;27;20170;-84
2021/06/08 09:44:21;;;;;;;5.18;4.75;;;;;;;;;;5116545;28;20257;-85
2021/06/08 09:46:47;;;;;;;5.35;4.22;;;;;;;;;;5116006;28;20249;-84
2021/06/08 09:49:17;;;;;;;4.90;4.55;;;;;;;;;;5116323;28;20166;-84
2021/06/08 09:51:45;;;;;;;4.40;4.10;;;;;;;;;;5116035;28;20284;-84
2021/06/08 09:54:29;;;;;;;5.03;4.72;;;;;;;;;;5116045;28;20193;-84
2021/06/08 09:57:14;;;;;;;4.55;4.25;;;;;;;;;;5115773;28;20209;-84
2021/06/08 09:59:49;;;;;;;5.07;4.20;;;;;;;;;;5097596;28;20178;-83
2021/06/08 10:02:21;;;;;;;5.05;4.65;;;;;;;;;;5115541;28;20233;-84
2021/06/08 10:04:46;;;;;;;4.72;4.38;;;;;;;;;;5116906;28;20260;-84
2021/06/08 10:07:24;;;;;;;5.00;4.60;;;;;;;;;;5116935;28;20174;-83
2021/06/08 10:10:07;;;;;;;4.82;4.40;;;;;;;;;;5117397;28;20154;-83
2021/06/08 10:12:32;;;;;;;4.78;4.38;;;;;;;;;;5097213;28;20209;-83
2021/06/08 10:15:05;;;;;;;4.38;4.00;;;;;;;;;;5117611;27;20211;-83
2021/06/08 10:17:31;;;;;;;4.50;4.20;;;;;;;;;;5096932;28;20213;-84
2021/06/08 10:19:56;;;;;;;4.57;4.20;;;;;;;;;;5100004;27;20197;-84
2021/06/08 10:22:31;;;;;;;4.55;4.20;;;;;;;;;;5117140;28;20204;-84
2021/06/08 10:24:56;;;;;;;4.30;3.90;;;;;;;;;;5116737;28;20169;-84
2021/06/08 10:27:21;;;;;;;4.38;4.10;;;;;;;;;;5115758;28;20166;-84
2021/06/08 10:29:48;;;;;;;4.25;3.88;;;;;;;;;;5114576;28;20178;-84
2021/06/08 10:32:13;;;;;;;4.63;4.32;;;;;;;;;;5115394;28;20212;-84
2021/06/08 10:34:40;;;;;;;4.90;4.50;;;;;;;;;;5115400;28;20166;-84
2021/06/08 10:37:05;;;;;;;4.20;3.90;;;;;;;;;;5115309;28;20616;-84
2021/06/08 10:39:31;;;;;;;5.63;4.18;;;;;;;;;;5115302;28;20177;-84
2021/06/08 10:41:58;;;;;;;4.55;4.10;;;;;;;;;;5114960;28;20176;-84
2021/06/08 10:44:24;;;;;;;5.15;4.10;;;;;;;;;;5115631;28;20168;-84
2021/06/08 10:47:02;;;;;;;4.28;3.92;;;;;;;;;;5116286;28;20162;-84
2021/06/08 10:49:34;;;;;;;4.45;4.10;;;;;;;;;;5116970;28;20187;-83
2021/06/08 10:52:07;;;;;;;6.00;5.50;;;;;;;;;;5116890;28;20285;-84
2021/06/08 10:54:41;;;;;;;4.32;3.97;;;;;;;;;;5116755;28;20200;-84
2021/06/08 10:57:14;;;;;;;7.18;6.57;;;;;;;;;;5116755;28;20165;-83
2021/06/08 10:59:41;;;;;;;4.35;4.05;;;;;;;;;;5117174;28;20165;-83
2021/06/08 11:02:07;;;;;;;4.68;4.20;;;;;;;;;;5115130;28;20229;-83
2021/06/08 11:04:51;;;;;;;4.60;4.30;;;;;;;;;;5116267;28;20518;-84
2021/06/08 11:07:47;;;;;;;4.18;3.75;;;;;;;;;;5116748;28;20214;-83
2021/06/08 11:10:25;;;;;;;4.20;3.80;;;;;;;;;;5095166;28;20209;-83
2021/06/08 11:12:50;;;;;;;3.90;3.60;;;;;;;;;;5116237;28;20233;-83
2021/06/08 11:15:20;;;;;;;3.78;3.50;;;;;;;;;;5116514;28;20247;-84
2021/06/08 11:17:45;;;;;;;4.85;3.90;;;;;;;;;;5109783;27;20185;-84
2021/06/08 11:20:18;;;;;;;4.68;3.88;;;;;;;;;;5108299;27;20173;-85
2021/06/08 11:22:54;;;;;;;6.15;4.28;;;;;;;;;;5104489;28;20166;-85
2021/06/08 11:25:33;;;;;;;5.63;5.22;;;;;;;;;;5105303;28;20163;-86
2021/06/08 11:28:00;;;;;;;4.43;4.07;;;;;;;;;;5105386;28;20166;-85
2021/06/08 11:30:30;;;;;;;4.30;3.88;;;;;;;;;;5105774;28;20170;-85
2021/06/08 11:32:55;;;;;;;4.07;3.80;;;;;;;;;;5104552;28;20199;-85
2021/06/08 11:35:24;;;;;;;4.25;4.00;;;;;;;;;;5104836;28;20261;-84
2021/06/08 11:37:51;;;;;;;4.13;3.67;;;;;;;;;;5112441;28;20174;-84
2021/06/08 11:40:35;;;;;;;4.10;3.80;;;;;;;;;;5113898;28;20193;-84
2021/06/08 11:43:09;;;;;;;3.70;3.50;;;;;;;;;;5105400;28;20185;-84
2021/06/08 11:45:36;;;;;;;3.97;3.67;;;;;;;;;;5103647;28;20177;-84
2021/06/08 11:48:01;;;;;;;4.00;3.70;;;;;;;;;;5104987;28;20166;-85
2021/06/08 11:50:45;;;;;;;4.00;3.60;;;;;;;;;;5105011;28;20175;-84
2021/06/08 11:53:12;;;;;;;4.57;3.75;;;;;;;;;;5103714;28;20205;-84
2021/06/08 11:55:38;;;;;;;4.20;3.80;;;;;;;;;;5103952;28;20177;-83
2021/06/08 11:58:03;;;;;;;5.50;4.40;;;;;;;;;;5099680;28;20174;-85
2021/06/08 12:00:42;;;;;;;4.03;3.80;;;;;;;;;;5094832;28;20167;-84
2021/06/08 12:03:30;;;;;;;5.07;4.00;;;;;;;;;;5095089;28;20178;-84
2021/06/08 12:05:57;;;;;;;4.82;3.50;;;;;;;;;;5086652;28;20193;-84
2021/06/08 12:08:23;;;;;;;3.85;3.55;;;;;;;;;;5106117;28;20230;-83
2021/06/08 12:10:49;;;;;;;3.92;3.63;;;;;;;;;;5111880;27;20250;-85
2021/06/08 12:13:16;;;;;;;4.40;4.10;;;;;;;;;;5115064;28;20256;-84
2021/06/08 12:15:45;;;;;;;4.25;3.88;;;;;;;;;;5115132;28;20165;-83
2021/06/08 12:18:12;;;;;;;4.20;3.90;;;;;;;;;;5115017;28;20214;-84
2021/06/08 12:20:39;;;;;;;6.43;3.80;;;;;;;;;;5135364;27;20169;-84
2021/06/08 12:23:04;;;;;;;3.90;3.60;;;;;;;;;;5103498;27;20613;-84
2021/06/08 12:25:30;;;;;;;5.30;3.97;;;;;;;;;;5111304;28;20293;-84
2021/06/08 12:27:56;;;;;;;4.55;3.97;;;;;;;;;;5094489;28;20178;-84
2021/06/08 12:30:26;;;;;;;7.68;3.95;;;;;;;;;;5102618;28;20223;-84
2021/06/08 12:32:52;;;;;;;5.13;3.80;;;;;;;;;;5114398;28;20208;-84
2021/06/08 12:35:28;;;;;;;3.97;3.67;;;;;;;;;;5115048;28;20684;-84
2021/06/08 12:38:06;;;;;;;3.80;3.60;;;;;;;;;;5115218;28;20176;-83
2021/06/08 12:40:31;;;;;;;3.83;3.63;;;;;;;;;;5115194;28;20165;-83
2021/06/08 12:42:59;;;;;;;3.80;3.58;;;;;;;;;;5114956;28;20234;-84
2021/06/08 12:45:25;;;;;;;4.13;3.70;;;;;;;;;;5114650;28;20162;-84
2021/06/08 12:47:50;;;;;;;3.95;3.65;;;;;;;;;;5114687;28;20178;-84
2021/06/08 12:50:21;;;;;;;3.58;3.38;;;;;;;;;;5114689;28;20564;-84
2021/06/08 12:52:55;;;;;;;4.10;3.78;;;;;;;;;;5112368;28;20743;-85
2021/06/08 12:55:20;;;;;;;3.92;3.63;;;;;;;;;;5111257;28;20166;-84
2021/06/08 12:57:45;;;;;;;4.05;3.60;;;;;;;;;;5092849;28;20170;-85
2021/06/08 13:00:15;;;;;;;4.35;3.67;;;;;;;;;;5096338;28;20269;-84
2021/06/08 13:02:41;;;;;;;4.03;3.67;;;;;;;;;;5114405;28;20712;-86
2021/06/08 13:05:07;;;;;;;4.10;3.80;;;;;;;;;;5114837;28;20178;-85
2021/06/08 13:07:35;;;;;;;3.60;3.40;;;;;;;;;;5114578;28;20635;-85
2021/06/08 13:10:06;;;;;;;4.20;3.80;;;;;;;;;;5114293;28;20612;-85
2021/06/08 13:12:57;;;;;;;5.35;3.80;;;;;;;;;;5114336;28;20304;-85
2021/06/08 13:15:28;;;;;;;5.53;5.03;;;;;;;;;;5108916;28;20189;-85
2021/06/08 13:18:10;;;;;;;4.30;3.88;;;;;;;;;;5113874;28;20172;-84
2021/06/08 13:20:37;;;;;;;4.10;3.80;;;;;;;;;;5114276;28;20166;-85
2021/06/08 13:23:03;;;;;;;4.75;3.72;;;;;;;;;;5096203;28;20528;-84
2021/06/08 13:25:28;;;;;;;5.97;3.80;;;;;;;;;;5114066;28;20170;-84
2021/06/08 13:27:55;;;;;;;4.30;3.90;;;;;;;;;;5113824;28;20216;-84
2021/06/08 13:30:28;;;;;;;4.20;3.90;;;;;;;;;;5114295;28;20201;-85
2021/06/08 13:32:59;;;;;;;4.55;4.15;;;;;;;;;;5113767;28;20194;-85
2021/06/08 13:35:28;;;;;;;4.50;4.20;;;;;;;;;;5114201;28;20222;-86
2021/06/08 13:37:55;;;;;;;4.07;3.85;;;;;;;;;;5114022;28;20193;-85
2021/06/08 13:40:22;;;;;;;4.30;3.92;;;;;;;;;;5113657;28;20173;-85
2021/06/08 13:43:03;;;;;;;4.40;4.10;;;;;;;;;;5095829;28;20750;-85
2021/06/08 13:45:50;;;;;;;4.75;4.28;;;;;;;;;;5105040;28;20179;-85
2021/06/08 13:48:15;;;;;;;4.70;4.05;;;;;;;;;;5075575;28;20329;-85
2021/06/08 13:50:40;;;;;;;4.30;4.00;;;;;;;;;;5093353;28;20253;-85
2021/06/08 13:53:15;;;;;;;4.00;3.78;;;;;;;;;;5092780;28;20250;-85
2021/06/08 13:55:56;;;;;;;4.47;4.13;;;;;;;;;;5093562;28;20600;-85
2021/06/08 14:01:07;;;;;;;4.43;4.13;;;;;;;;;;5112186;28;20562;-84
2021/06/08 14:03:32;;;;;;;5.70;3.97;;;;;;;;;;5113594;28;20597;-84
2021/06/08 14:06:08;;;;;;;4.25;3.92;;;;;;;;;;5116820;28;20181;-84
2021/06/08 14:08:34;;;;;;;4.50;4.20;;;;;;;;;;5117287;28;20173;-84
2021/06/08 14:11:00;;;;;;;4.85;4.45;;;;;;;;;;5117301;28;20166;-84
2021/06/08 14:13:38;;;;;;;4.88;4.38;;;;;;;;;;5108915;28;20266;-84
2021/06/08 14:16:07;;;;;;;5.40;5.00;;;;;;;;;;5097204;28;20182;-85
2021/06/08 14:18:33;;;;;;;5.50;5.10;;;;;;;;;;5096898;28;20170;-85
2021/06/08 14:20:59;;;;;;;5.82;5.32;;;;;;;;;;5097087;28;20224;-84
2021/06/08 14:23:25;;;;;;;6.78;5.55;;;;;;;;;;5096569;28;20164;-84
2021/06/08 14:25:52;;;;;;;7.07;5.03;;;;;;;;;;5078519;28;20166;-84
2021/06/08 14:28:18;;;;;;;6.50;5.07;;;;;;;;;;5096518;28;20181;-84
2021/06/08 14:30:43;;;;;;;5.75;5.10;;;;;;;;;;5110616;28;20173;-84
2021/06/08 14:33:08;;;;;;;6.13;5.32;;;;;;;;;;5116688;28;20663;-84
2021/06/08 14:35:34;;;;;;;7.70;5.53;;;;;;;;;;5117496;28;20165;-84
2021/06/08 14:37:59;;;;;;;6.97;5.53;;;;;;;;;;5117217;28;20174;-84
2021/06/08 14:40:24;;;;;;;5.63;5.13;;;;;;;;;;5117157;28;20161;-84
2021/06/08 14:42:52;;;;;;;6.15;5.00;;;;;;;;;;5116850;28;20170;-85